Nearby METAR Reports

 

KSJC - San Jose, California, USA
Distance from station: PnWs 14km
Aktualizacja: 13/04/2024 04:53
Przeważnie pochmurno
Przeważnie pochmurno
 Wiatr z PdPdWs
Wiatr: PdPdWs 20 km/h, Poryw: 31 km/h
Temperatura: 14°C
Punkt Rosy: 6°C
Wilgotność: 59%
Ciśnienie: 1008.8 hPa
Clouds: Przeważnie pochmurno
Visibility: 16 km
Cloud details: Few Clouds 762 m
Przeważnie pochmurno 1036 m
Przeważnie pochmurno 3048 m
2024/04/13 02:53 KSJC 130253Z 16011G17KT 10SM FEW025 BKN034 BKN100 14/06 A2979 RMK AO2 PK WND 16026/0233 SLP088 T01440061 50003
KNUQ - Moffett Nas/Mtn, California, USA
Distance from station: Pn 14km
Aktualizacja: 13/04/2024 04:55
Częściowe zachmurzenie
Częściowe zachmurzenie
 Wiatr z PdZd
Wiatr: PdZd 19 km/h, Poryw: 37 km/h
Temperatura: 14°C
Punkt Rosy: 6°C
Wilgotność: 59%
Ciśnienie: 1008.8 hPa
Clouds: Częściowe zachmurzenie
Visibility: 16 km
Cloud details: Częściowe zachmurzenie 3658 m
2024/04/13 02:55 KNUQ 130255Z AUTO 22010G20KT 200V260 10SM SCT120 14/06 A2979 RMK AO2
KPAO - Palo Alto, California, USA
Distance from station: PnPnZd 23km
Aktualizacja: 13/04/2024 04:47
Przeważnie pochmurno
Przeważnie pochmurno
 Wiatr z Pd
Wiatr: Pd 20 km/h, Poryw: 39 km/h
Temperatura: 13°C
Punkt Rosy: 6°C
Wilgotność: 63%
Ciśnienie: 1008.8 hPa
Clouds: Przeważnie pochmurno
Visibility: 16 km
Cloud details: Przeważnie pochmurno 1676 m
2024/04/13 02:47 KPAO 130247Z 19011G21KT 10SM BKN055 13/06 A2979
 
KRHV - San Jose/Reid, California, USA
Distance from station: WsPnWs 19km
Aktualizacja: 13/04/2024 04:47
Częściowe zachmurzenie
Częściowe zachmurzenie
 Wiatr z Pd
Wiatr: Pd 19 km/h, Poryw: 28 km/h
Temperatura: 14°C
Punkt Rosy: 6°C
Wilgotność: 59%
Ciśnienie: 1009.5 hPa
Clouds: Częściowe zachmurzenie
Visibility: 16 km
Cloud details: Częściowe zachmurzenie 1067 m
2024/04/13 02:47 KRHV 130247Z 17010G15KT 10SM SCT035 14/06 A2981
KOAK - Oakland, California, USA
Distance from station: PnPnZd 50km
Aktualizacja: 13/04/2024 04:53
Przeważnie pochmurno
Przeważnie pochmurno
 Wiatr z Pd
Wiatr: Pd 26 km/h
Temperatura: 14°C
Punkt Rosy: 8°C
Wilgotność: 67%
Ciśnienie: 1008.8 hPa
Clouds: Przeważnie pochmurno
Visibility: 16 km
Cloud details: Przeważnie pochmurno 1097 m
Przeważnie pochmurno 4572 m
2024/04/13 02:53 KOAK 130253Z 17014KT 10SM BKN036 BKN150 14/08 A2979 RMK AO2 SLP089 T01390078 53005
KSQL - San Carlos Airpo, California, USA
Distance from station: PnZd 34km
Aktualizacja: 13/04/2024 04:50
Częściowe zachmurzenie
Częściowe zachmurzenie
 Wiatr z Pd
Wiatr: Pd 26 km/h, Poryw: 43 km/h
Temperatura: 13°C
Punkt Rosy: 7°C
Wilgotność: 67%
Ciśnienie: 1008.8 hPa
Clouds: Częściowe zachmurzenie
Visibility: 16 km
Cloud details: Częściowe zachmurzenie 1128 m
2024/04/13 02:50 KSQL 130250Z 19014G23KT 10SM SCT037 13/07 A2979
 
KSFO - San Francisco, California, USA
Distance from station: PnZd 49km
Aktualizacja: 13/04/2024 04:56
Przeważnie pochmurno
Przeważnie pochmurno
 Wiatr z Pd
Wiatr: Pd 28 km/h, Poryw: 44 km/h
Temperatura: 13°C
Punkt Rosy: 8°C
Wilgotność: 72%
Ciśnienie: 1008.8 hPa
Clouds: Przeważnie pochmurno
Visibility: 16 km
Cloud details: Few Clouds 488 m
Przeważnie pochmurno 1158 m
Przeważnie pochmurno 3658 m
2024/04/13 02:56 KSFO 130256Z 18015G24KT 10SM FEW016 BKN038 BKN120 13/08 A2979 RMK AO2 PK WND 17029/0246 SLP086 T01330078 51002
KE16 - San Martin, California, USA
Distance from station: WsPdWs 43km
Aktualizacja: 13/04/2024 04:55
Pochmurno
Pochmurno
 Wiatr z PdZd
Wiatr: PdZd 17 km/h, Poryw: 35 km/h
Temperatura: 13°C
Punkt Rosy: 8°C
Wilgotność: 72%
Ciśnienie: 1010.2 hPa
Clouds: Pochmurno
Visibility: 16 km
Cloud details: Pochmurno 914 m
2024/04/13 02:55 KE16 130255Z AUTO 23009G19KT 10SM OVC030 13/08 A2983 RMK AO2 PWINO PNO
KWVI - Watsonville, California, USA
Distance from station: PdPdWs 44km
Aktualizacja: 13/04/2024 04:53
Pochmurno
Pochmurno
 Wiatr z PdZd
Wiatr: PdZd 20 km/h, Poryw: 33 km/h
Temperatura: 12°C
Punkt Rosy: 9°C
Wilgotność: 82%
Ciśnienie: 1009.8 hPa
Clouds: Pochmurno
Visibility: 16 km
Cloud details: Częściowe zachmurzenie 427 m
Pochmurno 823 m
2024/04/13 02:53 KWVI 130253Z AUTO 23011G18KT 10SM SCT014 OVC027 12/09 A2982 RMK AO2 SLP097 T01220094 58003
 
KHAF - Half Moon Bay, California, USA
Distance from station: ZdPnZd 50km
Aktualizacja: 13/04/2024 04:55
Mist, Pochmurno
Mist, Pochmurno
 Wiatr z Pd
Wiatr: Pd 24 km/h, Poryw: 35 km/h
Temperatura: 12°C
Punkt Rosy: 11°C
Wilgotność: 94%
Ciśnienie: 1009.1 hPa
Podsumowanie: Mist
Clouds: Pochmurno
Visibility: 5 km
Cloud details: Pochmurno 701 m
2024/04/13 02:55 KHAF 130255Z AUTO 18013G19KT 3SM BR OVC023 12/11 A2980 RMK AO2
KHWD - Hayward, California, USA
Distance from station: Pn 44km
Aktualizacja: 13/04/2024 04:54
Przeważnie pochmurno
Przeważnie pochmurno
 Wiatr z Pd
Wiatr: Pd 24 km/h, Poryw: 43 km/h
Temperatura: 15°C
Punkt Rosy: 7°C
Wilgotność: 59%
Ciśnienie: 1008.8 hPa
Clouds: Przeważnie pochmurno
Visibility: 16 km
Cloud details: Przeważnie pochmurno 1372 m
2024/04/13 02:54 KHWD 130254Z 19013G23KT 10SM BKN045 15/07 A2979 RMK AO2 SLP098 T01500067 53008
KLVK - Livermore, California, USA
Distance from station: PnPnZd 51km
Aktualizacja: 13/04/2024 04:53
Bezchmurnie
Bezchmurnie
 Wiatr z ZdPdZa
Wiatr: ZdPdZa 22 km/h, Poryw: 37 km/h
Temperatura: 13°C
Punkt Rosy: 6°C
Wilgotność: 63%
Ciśnienie: 1008.5 hPa
Clouds: Bezchmurnie
Visibility: 16 km
2024/04/13 02:53 KLVK 130253Z 24012G20KT 10SM CLR 13/06 A2978 RMK AO2 SLP082 T01280061 51012